Time;durP1;ratioP1;P1;durP2;ratioP2;P2;SDS_P1;SDS_P2;PMS_P1;PMS_P2;Temp;Humidity;BMP_temperature;BMP_pressure;BME280_temperature;BME280_humidity;BME280_pressure;Samples;Min_cycle;Max_cycle;Signal;HPM_P1;HPM_P2
2023/02/19 00:02:24;;;;;;;6.20;3.42;;;9.00;99.90;;;;;;5023021;28;20022;-65
2023/02/19 00:04:49;;;;;;;5.60;2.90;;;8.90;99.90;;;;;;5012369;28;20040;-63
2023/02/19 00:07:15;;;;;;;4.10;2.45;;;8.90;99.90;;;;;;5023848;28;20033;-64
2023/02/19 00:09:40;;;;;;;5.93;2.53;;;8.90;99.90;;;;;;5027726;28;20121;-64
2023/02/19 00:12:06;;;;;;;4.80;2.58;;;8.90;99.90;;;;;;5015443;28;20038;-63
2023/02/19 00:14:32;;;;;;;4.45;2.83;;;8.90;99.90;;;;;;5012499;28;20037;-63
2023/02/19 00:16:57;;;;;;;4.68;2.50;;;8.90;99.90;;;;;;5019955;28;20029;-63
2023/02/19 00:19:23;;;;;;;3.97;2.40;;;8.80;99.90;;;;;;5030026;28;20033;-64
2023/02/19 00:21:52;;;;;;;4.95;2.45;;;8.80;99.90;;;;;;5001085;28;20029;-65
2023/02/19 00:24:18;;;;;;;3.65;2.50;;;8.90;99.90;;;;;;5020747;28;20026;-64
2023/02/19 00:26:45;;;;;;;2.55;1.92;;;8.80;99.90;;;;;;5016094;28;20025;-64
2023/02/19 00:29:19;;;;;;;3.35;2.28;;;8.90;99.90;;;;;;5023436;28;20026;-65
2023/02/19 00:31:45;;;;;;;2.80;1.80;;;8.90;99.90;;;;;;5019764;28;20028;-65
2023/02/19 00:34:12;;;;;;;3.88;2.67;;;8.90;99.90;;;;;;5052170;28;20043;-64
2023/02/19 00:36:39;;;;;;;3.40;2.33;;;8.90;99.90;;;;;;5016958;28;20065;-64
2023/02/19 00:39:06;;;;;;;3.70;2.20;;;8.80;99.90;;;;;;5033172;28;20049;-64
2023/02/19 00:41:32;;;;;;;4.13;2.50;;;8.70;99.90;;;;;;5013438;28;20034;-65
2023/02/19 00:44:07;;;;;;;4.53;2.65;;;8.70;99.90;;;;;;5043206;28;20071;-64
2023/02/19 00:46:34;;;;;;;3.22;2.45;;;8.70;99.90;;;;;;4999744;28;20508;-64
2023/02/19 00:49:00;;;;;;;3.42;2.63;;;8.70;99.90;;;;;;5012247;28;20116;-64
2023/02/19 00:51:29;;;;;;;4.07;2.60;;;8.70;99.90;;;;;;5022197;28;20034;-64
2023/02/19 00:53:55;;;;;;;5.47;3.08;;;8.70;99.90;;;;;;5012325;28;20076;-64
2023/02/19 00:56:21;;;;;;;5.88;2.92;;;8.80;99.90;;;;;;5024080;28;20033;-64
2023/02/19 00:58:47;;;;;;;4.07;2.67;;;8.80;99.90;;;;;;5013560;28;20044;-64
2023/02/19 01:01:13;;;;;;;5.25;3.33;;;8.80;99.90;;;;;;5036252;28;20029;-65
2023/02/19 01:03:39;;;;;;;4.72;3.05;;;8.80;99.90;;;;;;5033642;28;20342;-64
2023/02/19 01:06:05;;;;;;;5.25;3.40;;;8.80;99.90;;;;;;5032060;28;20109;-64
2023/02/19 01:08:32;;;;;;;5.00;3.30;;;8.70;99.90;;;;;;5011729;28;20037;-65
2023/02/19 01:10:59;;;;;;;5.55;3.15;;;8.70;99.90;;;;;;5029912;28;20140;-65
2023/02/19 01:13:25;;;;;;;5.65;3.42;;;8.70;99.90;;;;;;5035347;28;20082;-65
2023/02/19 01:15:51;;;;;;;6.30;3.70;;;8.70;99.90;;;;;;5038518;28;20037;-64
2023/02/19 01:18:16;;;;;;;5.65;3.58;;;8.70;99.90;;;;;;5032891;28;20032;-65
2023/02/19 01:20:43;;;;;;;7.05;4.13;;;8.70;99.90;;;;;;5030512;28;20113;-65
2023/02/19 01:23:12;;;;;;;7.18;3.65;;;8.70;99.90;;;;;;5033937;28;20029;-65
2023/02/19 01:25:41;;;;;;;5.13;3.70;;;8.70;99.90;;;;;;5040575;28;20040;-65
2023/02/19 01:28:07;;;;;;;5.75;3.53;;;8.80;99.90;;;;;;5029650;28;20476;-65
2023/02/19 01:30:38;;;;;;;5.90;4.22;;;8.80;99.90;;;;;;5023128;28;20093;-65
2023/02/19 01:33:04;;;;;;;5.85;3.92;;;8.80;99.90;;;;;;5032041;28;20485;-65
2023/02/19 01:35:30;;;;;;;10.63;4.15;;;8.80;99.90;;;;;;5034512;28;20046;-66
2023/02/19 01:37:56;;;;;;;7.28;5.07;;;8.80;99.90;;;;;;5011934;28;20544;-66
2023/02/19 01:40:22;;;;;;;7.00;4.95;;;8.80;99.90;;;;;;5011500;28;20073;-66
2023/02/19 01:42:47;;;;;;;5.85;4.07;;;8.70;99.90;;;;;;5011022;28;20054;-66
2023/02/19 01:45:30;;;;;;;4.90;3.80;;;8.60;99.90;;;;;;5027782;28;20057;-65
2023/02/19 01:48:07;;;;;;;6.45;4.25;;;8.60;99.90;;;;;;5040894;28;20037;-65
2023/02/19 01:50:37;;;;;;;6.57;4.18;;;8.60;99.90;;;;;;5012586;28;20105;-65
2023/02/19 01:53:07;;;;;;;6.82;3.40;;;8.60;99.90;;;;;;5032041;28;20083;-65
2023/02/19 01:55:34;;;;;;;6.90;4.38;;;8.60;99.90;;;;;;5023281;28;20045;-65
2023/02/19 01:58:02;;;;;;;6.03;3.97;;;8.60;99.90;;;;;;5047763;28;20426;-65
2023/02/19 02:00:28;;;;;;;4.55;3.53;;;8.60;99.90;;;;;;5037358;28;20045;-65
2023/02/19 02:02:56;;;;;;;6.07;3.70;;;8.50;99.90;;;;;;5015497;28;20241;-65
2023/02/19 02:05:38;;;;;;;6.93;4.45;;;8.50;99.90;;;;;;5022351;28;20112;-65
2023/02/19 02:10:50;;;;;;;5.37;3.20;;;8.50;99.90;;;;;;5032779;28;20037;-65
2023/02/19 02:13:16;;;;;;;6.03;3.70;;;8.40;99.90;;;;;;5031199;28;20476;-65
2023/02/19 02:15:54;;;;;;;5.05;3.53;;;8.30;99.90;;;;;;5029635;28;20511;-64
2023/02/19 02:18:44;;;;;;;5.15;3.53;;;8.40;99.90;;;;;;5032870;28;20402;-65
2023/02/19 02:21:45;;;;;;;4.03;3.00;;;8.30;99.90;;;;;;5018460;28;20034;-65
2023/02/19 02:24:35;;;;;;;7.18;3.13;;;8.40;99.90;;;;;;5031354;28;20381;-65
2023/02/19 02:27:38;;;;;;;4.50;3.05;;;8.40;99.90;;;;;;5029256;28;20096;-65
2023/02/19 02:30:25;;;;;;;5.45;3.28;;;8.30;99.90;;;;;;5018432;28;20142;-65
2023/02/19 02:33:09;;;;;;;7.13;3.40;;;8.30;99.90;;;;;;5023313;28;20025;-65
2023/02/19 02:35:53;;;;;;;5.50;3.72;;;8.20;99.90;;;;;;5026100;28;20042;-65
2023/02/19 02:38:22;;;;;;;5.47;4.10;;;8.10;99.90;;;;;;5011676;28;20081;-65
2023/02/19 02:40:48;;;;;;;7.30;4.45;;;8.00;99.90;;;;;;5011489;28;20032;-65
2023/02/19 02:43:14;;;;;;;9.38;5.07;;;8.00;99.90;;;;;;5015637;28;20033;-65
2023/02/19 02:45:40;;;;;;;7.00;4.45;;;8.00;99.90;;;;;;5049286;28;20047;-65
2023/02/19 02:48:06;;;;;;;6.28;3.88;;;7.90;99.90;;;;;;5051961;28;20032;-65
2023/02/19 02:50:47;;;;;;;8.10;3.53;;;7.90;99.90;;;;;;5044320;28;20389;-66
2023/02/19 02:56:25;;;;;;;9.90;4.20;;;7.90;99.90;;;;;;4996621;28;20045;-65
2023/02/19 02:58:52;;;;;;;6.80;3.95;;;7.80;99.90;;;;;;5013729;28;20073;-65
2023/02/19 03:07:49;;;;;;;5.93;3.38;;;7.70;99.90;;;;;;5023123;28;20038;-64
2023/02/19 03:10:23;;;;;;;6.30;3.08;;;7.70;99.90;;;;;;5039587;28;20111;-64
2023/02/19 03:21:15;;;;;;;7.05;3.90;;;7.50;99.90;;;;;;5014256;28;20033;-65
2023/02/19 03:26:31;;;;;;;7.88;4.05;;;7.50;99.90;;;;;;5013612;28;20429;-64
2023/02/19 03:31:45;;;;;;;8.52;3.85;;;7.50;99.90;;;;;;5013540;28;20037;-63
2023/02/19 03:34:16;;;;;;;9.40;3.90;;;7.40;99.90;;;;;;5014156;28;20022;-64
2023/02/19 03:36:47;;;;;;;7.80;3.67;;;7.40;99.90;;;;;;5033098;28;20045;-64
2023/02/19 03:39:16;;;;;;;8.07;4.35;;;7.30;99.90;;;;;;5021983;28;20377;-64
2023/02/19 03:41:54;;;;;;;8.23;4.03;;;7.30;99.90;;;;;;4996133;28;20389;-63
2023/02/19 03:44:32;;;;;;;7.35;3.83;;;7.30;99.90;;;;;;5032158;28;20501;-63
2023/02/19 03:47:29;;;;;;;6.70;3.28;;;7.20;99.90;;;;;;5013131;28;20180;-64
2023/02/19 03:49:58;;;;;;;9.90;3.85;;;7.10;99.90;;;;;;5012824;28;20552;-63
2023/02/19 03:52:52;;;;;;;7.45;3.53;;;7.00;99.90;;;;;;5017640;28;20057;-63
2023/02/19 03:55:38;;;;;;;5.40;2.83;;;6.90;99.90;;;;;;5012108;28;20034;-64
2023/02/19 03:58:22;;;;;;;7.80;3.50;;;6.90;99.90;;;;;;5022154;28;20497;-64
2023/02/19 04:00:52;;;;;;;6.82;2.65;;;6.80;99.90;;;;;;5013101;28;20049;-64
2023/02/19 04:03:37;;;;;;;5.50;2.40;;;6.70;99.90;;;;;;5013426;28;20030;-64
2023/02/19 04:06:08;;;;;;;5.82;3.22;;;6.60;99.90;;;;;;5016942;28;20100;-63
2023/02/19 04:08:35;;;;;;;4.50;2.10;;;6.50;99.90;;;;;;5034369;28;20091;-64
2023/02/19 04:11:03;;;;;;;5.72;2.55;;;6.40;99.90;;;;;;5014523;28;20030;-64
2023/02/19 04:13:28;;;;;;;4.75;2.55;;;6.40;99.90;;;;;;5031776;28;20026;-64
2023/02/19 04:15:59;;;;;;;4.82;2.17;;;6.40;99.90;;;;;;5014037;28;20389;-64
2023/02/19 04:18:28;;;;;;;6.22;3.20;;;6.40;99.90;;;;;;5012357;28;20508;-64
2023/02/19 04:20:55;;;;;;;5.05;2.28;;;6.40;99.90;;;;;;5012682;28;20034;-64
2023/02/19 04:23:26;;;;;;;4.95;2.92;;;6.40;99.90;;;;;;5051064;28;20032;-63
2023/02/19 04:25:58;;;;;;;5.53;2.95;;;6.40;99.90;;;;;;5016186;28;20394;-64
2023/02/19 04:28:23;;;;;;;7.38;2.97;;;6.40;99.90;;;;;;5041480;28;20033;-64
2023/02/19 04:30:49;;;;;;;8.75;3.17;;;6.30;99.90;;;;;;5016829;28;20030;-64
2023/02/19 04:33:14;;;;;;;5.00;2.63;;;6.30;99.90;;;;;;5012049;28;20477;-64
2023/02/19 04:35:40;;;;;;;4.85;2.30;;;6.30;99.90;;;;;;5026749;28;20045;-63
2023/02/19 04:38:06;;;;;;;6.18;2.22;;;6.30;99.90;;;;;;5031263;28;20033;-63
2023/02/19 04:40:32;;;;;;;4.53;2.55;;;6.30;99.90;;;;;;5030479;28;20033;-64
2023/02/19 04:42:58;;;;;;;6.03;2.30;;;6.10;99.90;;;;;;5022813;28;20025;-64
2023/02/19 04:45:23;;;;;;;4.80;2.30;;;6.10;99.90;;;;;;5018880;28;20082;-64
2023/02/19 04:47:49;;;;;;;4.20;2.00;;;6.10;99.90;;;;;;5051490;28;20192;-63
2023/02/19 04:50:15;;;;;;;4.78;1.75;;;6.00;99.90;;;;;;5043566;28;20037;-64
2023/02/19 04:52:40;;;;;;;3.20;2.00;;;6.00;99.90;;;;;;5013727;28;20493;-64
2023/02/19 04:55:07;;;;;;;7.95;2.42;;;6.00;99.90;;;;;;5030097;28;20028;-64
2023/02/19 04:57:34;;;;;;;5.38;2.10;;;6.00;99.90;;;;;;5051377;28;20037;-64
2023/02/19 05:00:00;;;;;;;4.97;2.53;;;5.90;99.90;;;;;;5040113;28;20065;-64
2023/02/19 05:02:26;;;;;;;4.75;2.28;;;5.90;99.90;;;;;;5031597;28;20057;-63
2023/02/19 05:04:51;;;;;;;4.35;2.35;;;5.90;99.90;;;;;;5029686;28;20018;-63
2023/02/19 05:07:17;;;;;;;9.27;2.72;;;5.80;99.90;;;;;;5029845;28;20033;-63
2023/02/19 05:09:43;;;;;;;3.70;2.60;;;5.80;99.90;;;;;;5020207;28;20084;-63
2023/02/19 05:12:08;;;;;;;5.55;2.90;;;5.70;99.90;;;;;;5031608;28;20029;-63
2023/02/19 05:14:34;;;;;;;4.30;2.38;;;5.70;99.90;;;;;;5025356;28;20034;-63
2023/02/19 05:17:00;;;;;;;5.88;2.97;;;5.70;99.90;;;;;;5016369;28;20041;-63
2023/02/19 05:19:25;;;;;;;5.22;2.55;;;5.70;99.90;;;;;;5026745;28;20269;-63
2023/02/19 05:21:51;;;;;;;11.20;3.03;;;5.70;99.90;;;;;;5014278;28;20690;-65
2023/02/19 05:24:17;;;;;;;5.13;2.75;;;5.60;99.90;;;;;;5045102;28;20493;-64
2023/02/19 05:26:43;;;;;;;5.43;2.55;;;5.60;99.90;;;;;;5027724;28;20062;-65
2023/02/19 05:29:08;;;;;;;6.05;3.00;;;5.60;99.90;;;;;;5041583;28;20029;-64
2023/02/19 05:31:34;;;;;;;7.28;3.13;;;5.60;99.90;;;;;;5012254;28;20033;-64
2023/02/19 05:33:59;;;;;;;4.70;2.58;;;5.60;99.90;;;;;;5036281;28;20017;-64
2023/02/19 05:36:25;;;;;;;5.43;2.58;;;5.60;99.90;;;;;;5011380;28;20129;-64
2023/02/19 05:38:53;;;;;;;6.95;2.97;;;5.60;99.90;;;;;;5018760;28;20025;-67
2023/02/19 05:41:21;;;;;;;6.53;2.95;;;5.60;99.90;;;;;;5024261;28;20499;-64
2023/02/19 05:43:48;;;;;;;4.35;2.30;;;5.60;99.90;;;;;;5024302;28;20180;-64
2023/02/19 05:46:18;;;;;;;7.68;3.40;;;5.60;99.90;;;;;;5019777;28;20030;-64
2023/02/19 05:48:44;;;;;;;5.25;3.20;;;5.60;99.90;;;;;;5024101;28;20112;-64
2023/02/19 05:51:15;;;;;;;4.95;2.78;;;5.60;99.90;;;;;;5017347;28;20033;-64
2023/02/19 05:53:43;;;;;;;6.05;3.30;;;5.60;99.90;;;;;;5017902;28;20025;-64
2023/02/19 05:56:32;;;;;;;6.07;3.45;;;5.60;99.90;;;;;;5011864;28;20045;-65
2023/02/19 05:59:00;;;;;;;5.25;3.20;;;5.60;99.90;;;;;;5031671;28;20045;-64
2023/02/19 06:01:27;;;;;;;6.32;3.17;;;5.70;99.90;;;;;;5017161;28;20037;-64
2023/02/19 06:03:53;;;;;;;5.75;3.08;;;5.70;99.90;;;;;;5017010;28;20038;-64
2023/02/19 06:06:19;;;;;;;4.40;2.53;;;5.70;99.90;;;;;;5010476;28;20043;-64
2023/02/19 06:08:46;;;;;;;5.00;2.55;;;5.70;99.90;;;;;;5016455;28;20038;-65
2023/02/19 06:11:12;;;;;;;5.15;2.47;;;5.60;99.90;;;;;;5018444;28;20029;-64
2023/02/19 06:13:38;;;;;;;4.82;2.30;;;5.60;99.90;;;;;;5024974;28;20465;-64
2023/02/19 06:16:05;;;;;;;4.85;2.70;;;5.60;99.90;;;;;;5021885;28;20045;-64
2023/02/19 06:18:30;;;;;;;5.55;2.83;;;5.60;99.90;;;;;;5012612;28;20025;-64
2023/02/19 06:21:08;;;;;;;5.50;2.47;;;5.70;99.90;;;;;;5024226;28;20042;-64
2023/02/19 06:23:34;;;;;;;4.63;2.60;;;5.70;99.90;;;;;;5019094;28;20105;-65
2023/02/19 06:26:16;;;;;;;3.30;2.10;;;5.80;99.90;;;;;;5020089;28;20030;-64
2023/02/19 06:28:43;;;;;;;5.13;2.30;;;5.90;99.90;;;;;;5053968;28;20029;-64
2023/02/19 06:31:10;;;;;;;5.45;2.95;;;6.00;99.90;;;;;;5019887;28;20036;-64
2023/02/19 06:33:39;;;;;;;3.67;2.22;;;6.00;99.90;;;;;;5031232;28;20030;-64
2023/02/19 06:36:06;;;;;;;4.50;2.50;;;6.10;99.90;;;;;;5030282;28;20029;-64
2023/02/19 06:38:31;;;;;;;6.50;2.15;;;6.10;99.90;;;;;;5039231;28;20119;-64
2023/02/19 06:41:02;;;;;;;6.70;2.50;;;6.20;99.90;;;;;;5022025;28;20112;-65
2023/02/19 06:43:28;;;;;;;4.03;2.30;;;6.20;99.90;;;;;;5034913;28;20029;-64
2023/02/19 06:45:57;;;;;;;7.93;2.88;;;6.20;99.90;;;;;;5021924;28;20451;-65
2023/02/19 06:48:24;;;;;;;8.57;2.40;;;6.30;99.90;;;;;;5013780;28;20026;-64
2023/02/19 06:50:49;;;;;;;6.40;2.60;;;6.30;99.90;;;;;;5024461;28;20292;-65
2023/02/19 06:53:15;;;;;;;8.23;2.92;;;6.30;99.90;;;;;;5035083;28;20256;-64
2023/02/19 06:55:41;;;;;;;6.47;2.58;;;6.20;99.90;;;;;;5024277;28;20072;-66
2023/02/19 06:58:06;;;;;;;4.57;2.60;;;6.20;99.90;;;;;;5048655;28;20064;-65
2023/02/19 07:00:33;;;;;;;5.63;2.33;;;6.20;99.90;;;;;;5029708;28;20045;-64
2023/02/19 07:02:58;;;;;;;6.70;2.50;;;6.30;99.90;;;;;;5010673;28;20053;-65
2023/02/19 07:05:24;;;;;;;5.57;2.75;;;6.30;99.90;;;;;;5014760;28;20061;-65
2023/02/19 07:07:50;;;;;;;6.75;2.70;;;6.30;99.90;;;;;;5027383;28;20080;-66
2023/02/19 07:10:16;;;;;;;7.47;2.95;;;6.40;99.90;;;;;;5042919;28;20025;-66
2023/02/19 07:12:41;;;;;;;3.72;2.08;;;6.40;99.90;;;;;;5019310;28;20034;-65
2023/02/19 07:15:07;;;;;;;5.22;1.90;;;6.50;99.90;;;;;;5014378;28;20037;-65
2023/02/19 07:17:34;;;;;;;5.15;1.90;;;6.50;99.90;;;;;;5013160;28;20117;-66
2023/02/19 07:19:59;;;;;;;4.53;1.83;;;6.50;99.90;;;;;;5022489;28;20492;-66
2023/02/19 07:22:25;;;;;;;6.20;2.05;;;6.50;99.90;;;;;;5045043;28;20029;-68
2023/02/19 07:24:51;;;;;;;5.18;2.83;;;6.60;99.90;;;;;;5020328;28;21947;-66
2023/02/19 07:27:16;;;;;;;5.57;2.05;;;6.60;99.90;;;;;;5019189;28;20060;-66
2023/02/19 07:29:42;;;;;;;3.95;1.98;;;6.70;99.90;;;;;;5028222;28;20473;-66
2023/02/19 07:32:08;;;;;;;4.65;2.13;;;6.70;99.90;;;;;;5015295;28;20500;-64
2023/02/19 07:34:33;;;;;;;3.90;2.15;;;6.80;99.90;;;;;;5019985;28;20481;-64
2023/02/19 07:36:59;;;;;;;5.82;2.13;;;6.80;99.90;;;;;;5029709;28;20353;-66
2023/02/19 07:39:25;;;;;;;2.92;1.77;;;6.90;99.90;;;;;;5013358;28;20022;-65
2023/02/19 07:41:50;;;;;;;4.32;2.30;;;6.80;99.90;;;;;;5022931;28;20026;-67
2023/02/19 07:44:16;;;;;;;5.10;1.90;;;6.80;99.90;;;;;;5025617;28;20034;-66
2023/02/19 07:46:43;;;;;;;4.20;2.00;;;6.80;99.90;;;;;;5028232;28;20032;-65
2023/02/19 07:49:08;;;;;;;4.10;1.90;;;6.90;99.90;;;;;;5021165;28;20037;-66
2023/02/19 07:51:34;;;;;;;4.35;1.73;;;6.90;99.90;;;;;;5020350;28;20026;-65
2023/02/19 07:54:00;;;;;;;7.00;3.08;;;6.90;99.90;;;;;;5025672;28;20476;-66
2023/02/19 07:56:27;;;;;;;4.50;1.77;;;6.80;99.90;;;;;;5024562;28;20494;-65
2023/02/19 07:58:53;;;;;;;7.10;2.78;;;6.80;99.90;;;;;;5012880;28;20481;-65
2023/02/19 08:04:05;;;;;;;5.00;2.45;;;6.70;99.90;;;;;;5015044;28;20033;-65
2023/02/19 08:06:31;;;;;;;6.90;2.58;;;6.80;99.90;;;;;;5012854;28;20022;-64
2023/02/19 08:08:57;;;;;;;5.88;1.88;;;6.80;99.90;;;;;;5015245;28;20040;-65
2023/02/19 08:14:07;;;;;;;3.45;1.95;;;6.80;99.90;;;;;;5013165;28;20030;-65
2023/02/19 08:16:33;;;;;;;11.80;2.90;;;6.80;99.90;;;;;;5032948;28;20034;-65
2023/02/19 08:18:59;;;;;;;5.38;2.22;;;6.70;99.90;;;;;;5048103;28;20171;-65
2023/02/19 08:21:24;;;;;;;12.90;2.47;;;6.70;99.90;;;;;;5039223;28;20036;-65
2023/02/19 08:23:50;;;;;;;6.80;2.35;;;6.70;99.90;;;;;;5040723;28;20037;-65
2023/02/19 08:26:16;;;;;;;3.72;2.22;;;6.70;99.90;;;;;;5020988;28;20459;-65
2023/02/19 08:28:41;;;;;;;5.88;2.35;;;6.70;99.90;;;;;;5025080;28;20052;-64
2023/02/19 08:31:10;;;;;;;4.60;2.60;;;6.70;99.90;;;;;;5015200;28;20405;-65
2023/02/19 08:33:36;;;;;;;3.88;2.30;;;6.70;99.90;;;;;;5016024;28;20032;-65
2023/02/19 08:36:07;;;;;;;5.82;2.45;;;6.60;99.90;;;;;;5015599;28;20030;-65
2023/02/19 08:38:34;;;;;;;3.05;2.03;;;6.60;99.90;;;;;;5016648;28;20034;-65
2023/02/19 08:41:06;;;;;;;4.93;2.22;;;6.60;99.90;;;;;;5017700;28;20026;-65
2023/02/19 08:43:32;;;;;;;5.35;2.30;;;6.60;99.90;;;;;;5034762;28;20039;-65
2023/02/19 08:45:58;;;;;;;4.72;2.17;;;6.60;99.90;;;;;;5039106;28;20025;-64
2023/02/19 08:48:23;;;;;;;5.22;2.33;;;6.60;99.90;;;;;;5012895;28;20037;-65
2023/02/19 08:50:54;;;;;;;4.20;2.22;;;6.60;99.90;;;;;;5011578;28;20033;-65
2023/02/19 08:53:20;;;;;;;7.00;2.70;;;6.70;99.90;;;;;;5026209;28;20052;-65
2023/02/19 08:55:45;;;;;;;4.80;2.20;;;6.70;99.90;;;;;;5030492;28;20069;-65
2023/02/19 08:58:11;;;;;;;6.00;2.20;;;6.80;99.90;;;;;;5019414;28;20124;-65
2023/02/19 09:00:36;;;;;;;7.47;2.38;;;6.90;99.90;;;;;;5029526;28;20042;-64
2023/02/19 09:03:02;;;;;;;5.78;2.53;;;6.90;99.90;;;;;;5033318;28;20535;-65
2023/02/19 09:05:28;;;;;;;7.07;2.80;;;6.90;99.90;;;;;;5016194;28;20034;-65
2023/02/19 09:07:53;;;;;;;4.82;2.08;;;7.00;99.90;;;;;;5018674;28;20033;-66
2023/02/19 09:10:19;;;;;;;7.55;2.70;;;7.00;99.90;;;;;;5028349;28;20120;-65
2023/02/19 09:12:44;;;;;;;6.20;2.63;;;7.10;99.90;;;;;;5026174;28;20026;-65
2023/02/19 09:15:10;;;;;;;12.45;3.72;;;7.10;99.90;;;;;;5011900;28;20161;-65
2023/02/19 09:17:36;;;;;;;7.75;2.78;;;7.10;99.90;;;;;;5015602;28;20046;-66
2023/02/19 09:20:02;;;;;;;11.32;2.85;;;7.10;99.90;;;;;;5021082;28;20029;-65
2023/02/19 09:22:28;;;;;;;11.48;2.65;;;7.10;99.90;;;;;;5035751;28;20043;-65
2023/02/19 09:24:54;;;;;;;6.85;2.47;;;7.20;99.90;;;;;;5029158;28;20392;-65
2023/02/19 09:27:20;;;;;;;7.57;2.85;;;7.30;99.90;;;;;;5019713;28;20030;-66
2023/02/19 09:29:46;;;;;;;5.75;2.65;;;7.30;99.90;;;;;;5009799;28;20022;-66
2023/02/19 09:32:12;;;;;;;7.13;2.45;;;7.30;99.90;;;;;;5014768;28;20033;-66
2023/02/19 09:34:38;;;;;;;3.85;2.53;;;7.40;99.90;;;;;;5019573;28;20033;-66
2023/02/19 09:37:07;;;;;;;5.78;2.20;;;7.40;99.90;;;;;;5019297;28;20099;-66
2023/02/19 09:39:34;;;;;;;7.25;2.40;;;7.60;99.80;;;;;;5025356;28;20029;-67
2023/02/19 09:42:17;;;;;;;6.70;2.42;;;7.50;99.70;;;;;;5003104;28;20021;-67
2023/02/19 09:44:48;;;;;;;5.45;2.28;;;7.50;99.50;;;;;;5012937;28;20130;-67
2023/02/19 09:47:23;;;;;;;10.82;2.80;;;7.50;99.60;;;;;;5010951;28;20161;-66
2023/02/19 09:50:12;;;;;;;6.65;2.72;;;7.60;99.50;;;;;;5026365;28;20392;-65
2023/02/19 09:52:50;;;;;;;5.90;2.47;;;7.60;99.60;;;;;;5027895;28;20029;-67
2023/02/19 09:55:16;;;;;;;7.72;2.80;;;7.70;99.60;;;;;;5031907;28;20036;-67
2023/02/19 09:57:43;;;;;;;4.45;2.10;;;7.70;99.60;;;;;;5046370;28;20041;-67
2023/02/19 10:00:20;;;;;;;7.00;3.00;;;7.80;99.30;;;;;;5029352;28;20051;-66
2023/02/19 10:02:49;;;;;;;6.55;2.70;;;7.80;99.50;;;;;;5016644;28;20282;-66
2023/02/19 10:05:15;;;;;;;6.60;2.97;;;7.80;99.40;;;;;;5016059;28;20032;-67
2023/02/19 10:07:44;;;;;;;18.60;3.45;;;7.90;99.40;;;;;;5014851;28;20030;-67
2023/02/19 10:10:13;;;;;;;5.10;2.35;;;7.90;98.80;;;;;;5015758;28;20033;-67
2023/02/19 10:12:44;;;;;;;7.18;2.63;;;7.90;98.80;;;;;;5014541;28;20038;-66
2023/02/19 10:15:29;;;;;;;7.32;2.97;;;7.90;98.80;;;;;;5015295;28;20509;-67
2023/02/19 10:17:55;;;;;;;6.85;2.72;;;8.00;98.30;;;;;;5013613;28;20042;-66
2023/02/19 10:20:23;;;;;;;4.53;1.85;;;7.90;98.20;;;;;;5020055;28;20032;-67
2023/02/19 10:22:54;;;;;;;5.90;2.55;;;7.90;97.80;;;;;;5014074;28;20512;-66
2023/02/19 10:25:20;;;;;;;7.38;2.28;;;7.90;97.80;;;;;;5019980;28;20037;-64
2023/02/19 10:27:45;;;;;;;3.97;1.83;;;7.90;97.90;;;;;;5033480;28;20398;-65
2023/02/19 10:30:22;;;;;;;5.28;2.20;;;7.90;96.90;;;;;;5015853;28;20030;-67
2023/02/19 10:32:58;;;;;;;6.10;2.20;;;7.90;97.40;;;;;;5014750;28;20382;-66
2023/02/19 10:35:23;;;;;;;4.68;2.13;;;7.90;97.60;;;;;;5030034;28;20029;-67
2023/02/19 10:37:51;;;;;;;17.63;3.80;;;8.00;97.70;;;;;;5017499;28;20040;-66
2023/02/19 10:40:20;;;;;;;11.95;2.35;;;8.10;97.60;;;;;;4998431;28;20153;-63
2023/02/19 10:42:52;;;;;;;5.93;2.13;;;8.10;97.60;;;;;;5013953;28;20037;-64
2023/02/19 10:45:23;;;;;;;4.40;2.63;;;8.20;97.70;;;;;;5014112;28;20421;-64
2023/02/19 10:47:49;;;;;;;4.30;1.88;;;8.20;97.40;;;;;;4995832;28;20030;-64
2023/02/19 10:50:24;;;;;;;5.60;1.92;;;8.20;97.30;;;;;;5026107;28;20025;-66
2023/02/19 10:52:55;;;;;;;6.30;2.65;;;8.10;96.80;;;;;;5019166;28;20025;-63
2023/02/19 10:55:27;;;;;;;5.82;2.30;;;8.10;96.70;;;;;;5014080;28;20413;-64
2023/02/19 10:57:53;;;;;;;5.93;2.00;;;8.10;95.90;;;;;;4995929;28;20030;-63
2023/02/19 11:00:29;;;;;;;7.30;1.95;;;8.00;96.10;;;;;;4998495;28;20413;-63
2023/02/19 11:03:17;;;;;;;5.47;2.13;;;8.00;96.40;;;;;;4978619;28;21509;-63
2023/02/19 11:06:05;;;;;;;5.40;2.15;;;8.10;96.50;;;;;;4993068;28;20445;-63
2023/02/19 11:08:57;;;;;;;8.95;1.90;;;8.10;96.00;;;;;;4999469;28;20031;-63
2023/02/19 11:11:36;;;;;;;4.35;1.63;;;8.20;96.00;;;;;;5001912;28;20053;-63
2023/02/19 11:14:13;;;;;;;4.35;1.63;;;8.30;95.30;;;;;;5005214;28;20084;-63
2023/02/19 11:16:42;;;;;;;4.80;1.85;;;8.30;95.30;;;;;;4996409;28;20494;-64
2023/02/19 11:19:25;;;;;;;3.55;1.80;;;8.30;95.40;;;;;;4998002;28;20074;-63
2023/02/19 11:21:51;;;;;;;5.55;1.70;;;8.40;95.50;;;;;;4999540;28;20055;-65
2023/02/19 11:24:36;;;;;;;3.47;1.55;;;8.40;95.40;;;;;;5009606;28;20026;-63
2023/02/19 11:27:05;;;;;;;3.47;1.50;;;8.50;95.30;;;;;;4999487;28;20074;-63
2023/02/19 11:29:34;;;;;;;4.55;1.88;;;8.60;94.60;;;;;;4996306;28;20022;-63
2023/02/19 11:32:18;;;;;;;4.25;2.00;;;8.50;93.80;;;;;;4993660;28;20122;-65
2023/02/19 11:34:44;;;;;;;4.57;1.60;;;8.60;94.40;;;;;;4992998;28;20014;-62
2023/02/19 11:37:15;;;;;;;5.72;2.08;;;8.60;93.90;;;;;;5009520;28;20402;-66
2023/02/19 11:39:47;;;;;;;8.77;3.33;;;8.50;93.50;;;;;;4994535;28;20031;-63
2023/02/19 11:42:42;;;;;;;4.68;1.98;;;8.50;93.70;;;;;;4995595;28;20497;-64
2023/02/19 11:45:32;;;;;;;4.10;1.98;;;8.50;93.60;;;;;;4996870;28;20121;-64
2023/02/19 11:48:21;;;;;;;5.13;1.80;;;8.40;93.20;;;;;;5004439;28;20041;-63
2023/02/19 11:50:58;;;;;;;5.18;1.60;;;8.40;93.80;;;;;;5006579;28;20425;-62
2023/02/19 11:53:26;;;;;;;3.45;1.40;;;8.40;93.80;;;;;;5010941;28;20482;-66
2023/02/19 11:56:10;;;;;;;3.28;1.48;;;8.30;93.40;;;;;;4997890;28;20046;-64
2023/02/19 11:58:36;;;;;;;5.60;2.00;;;8.20;93.50;;;;;;4993739;28;20048;-63
2023/02/19 12:01:41;;;;;;;4.05;1.88;;;8.20;93.10;;;;;;5020935;28;20276;-63
2023/02/19 12:04:22;;;;;;;5.82;1.55;;;8.10;92.50;;;;;;5024375;28;20061;-65
2023/02/19 12:07:02;;;;;;;4.90;1.80;;;8.00;92.90;;;;;;5016175;28;20034;-65
2023/02/19 12:09:27;;;;;;;6.78;1.70;;;8.00;93.20;;;;;;5020704;28;20108;-63
2023/02/19 12:12:04;;;;;;;4.57;2.05;;;8.00;93.00;;;;;;5022044;28;20140;-64
2023/02/19 12:14:54;;;;;;;4.50;1.73;;;8.00;93.10;;;;;;5022195;28;20030;-64
2023/02/19 12:17:57;;;;;;;4.53;1.75;;;7.90;93.00;;;;;;5014784;28;20040;-64
2023/02/19 12:20:23;;;;;;;3.28;1.40;;;7.90;92.40;;;;;;5019184;28;20522;-64
2023/02/19 12:23:06;;;;;;;5.70;2.20;;;7.80;92.60;;;;;;5030493;28;20017;-63
2023/02/19 12:25:44;;;;;;;5.72;2.63;;;7.90;92.60;;;;;;5030683;28;20029;-64
2023/02/19 12:28:30;;;;;;;4.97;1.63;;;7.80;92.40;;;;;;5023948;28;20381;-63
2023/02/19 12:31:05;;;;;;;3.03;1.70;;;7.90;92.70;;;;;;5021181;28;20033;-64
2023/02/19 12:34:05;;;;;;;4.28;1.70;;;7.90;92.80;;;;;;5014105;28;20038;-63
2023/02/19 12:36:31;;;;;;;4.95;2.28;;;8.00;93.00;;;;;;5015049;28;20042;-63
2023/02/19 12:39:18;;;;;;;3.58;1.75;;;8.10;92.20;;;;;;5023618;28;20021;-64
2023/02/19 12:42:08;;;;;;;5.40;1.80;;;8.10;91.50;;;;;;5011767;28;20026;-63
2023/02/19 12:45:06;;;;;;;4.38;1.90;;;8.10;91.50;;;;;;4973079;28;20431;-63
2023/02/19 12:47:38;;;;;;;6.80;1.80;;;8.10;91.80;;;;;;4931878;28;20046;-63
2023/02/19 12:52:41;;;;;;;4.35;1.80;;;8.20;91.90;;;;;;5603688;23;20062;-69
2023/02/19 12:55:24;;;;;;;9.35;2.15;;;8.20;92.10;;;;;;4943246;28;20489;-69
2023/02/19 12:57:51;;;;;;;6.63;1.70;;;8.20;92.00;;;;;;4956372;28;20089;-69
2023/02/19 13:00:29;;;;;;;6.28;2.00;;;8.20;92.10;;;;;;4955587;28;20022;-69
2023/02/19 13:03:19;;;;;;;6.13;2.08;;;8.30;91.80;;;;;;4953824;28;20042;-69
2023/02/19 13:05:57;;;;;;;4.32;1.98;;;8.20;91.80;;;;;;4964899;28;20027;-70
2023/02/19 13:08:26;;;;;;;3.95;2.03;;;8.20;91.90;;;;;;4947951;28;20114;-69
2023/02/19 13:11:10;;;;;;;4.15;1.48;;;8.20;91.80;;;;;;4964915;28;20027;-69
2023/02/19 13:13:47;;;;;;;5.30;1.87;;;8.20;91.80;;;;;;4957097;28;20106;-70
2023/02/19 13:16:16;;;;;;;3.45;1.88;;;8.20;91.60;;;;;;4962978;28;20070;-69
2023/02/19 13:18:45;;;;;;;3.58;1.65;;;8.20;91.50;;;;;;4966195;28;20027;-70
2023/02/19 13:23:57;;;;;;;3.78;1.48;;;8.20;90.60;;;;;;4963761;28;20031;-70
2023/02/19 13:24:10;;;;;;;8.90;1.67;;;8.20;91.30;;;;;;4965164;28;20027;-70
2023/02/19 13:27:00;;;;;;;3.17;1.60;;;8.30;90.70;;;;;;4969795;28;20110;-70
2023/02/19 13:29:53;;;;;;;4.82;2.05;;;8.30;91.10;;;;;;4962033;28;20047;-69
2023/02/19 13:32:43;;;;;;;5.60;2.00;;;8.30;90.80;;;;;;4964873;28;20047;-69
2023/02/19 13:35:56;;;;;;;4.78;1.80;;;8.40;91.10;;;;;;4961348;28;20493;-71
2023/02/19 13:38:23;;;;;;;5.20;1.75;;;8.50;91.40;;;;;;4963024;28;20426;-69
2023/02/19 13:40:59;;;;;;;3.15;1.50;;;8.60;91.30;;;;;;4963700;28;20038;-69
2023/02/19 13:43:35;;;;;;;5.85;1.85;;;8.60;91.10;;;;;;4968420;28;20417;-69
2023/02/19 13:46:06;;;;;;;3.55;1.95;;;8.70;91.10;;;;;;4970601;28;20113;-69
2023/02/19 13:48:37;;;;;;;4.88;1.73;;;8.80;90.80;;;;;;4950575;28;20050;-70
2023/02/19 13:51:12;;;;;;;4.30;1.52;;;8.80;90.80;;;;;;4953554;29;20023;-69
2023/02/19 13:53:41;;;;;;;4.93;2.00;;;9.00;91.10;;;;;;4959844;28;20498;-69